Time;durP1;ratioP1;P1;durP2;ratioP2;P2;SDS_P1;SDS_P2;PMS_P1;PMS_P2;Temp;Humidity;BMP_temperature;BMP_pressure;BME280_temperature;BME280_humidity;BME280_pressure;Samples;Min_cycle;Max_cycle;Signal;HPM_P1;HPM_P2
2022/10/04 00:00:08;;;;;;;16.55;10.07;;;15.50;97.80;;;;;;5034100;28;20053;-63
2022/10/04 00:02:34;;;;;;;17.17;9.77;;;15.40;97.70;;;;;;5033228;28;20208;-63
2022/10/04 00:05:06;;;;;;;13.23;9.25;;;15.50;97.80;;;;;;5034062;28;20111;-63
2022/10/04 00:07:43;;;;;;;17.35;9.35;;;15.50;97.70;;;;;;5033963;28;20027;-63
2022/10/04 00:10:27;;;;;;;12.48;9.00;;;15.50;97.60;;;;;;5033553;28;20025;-63
2022/10/04 00:12:59;;;;;;;14.48;9.40;;;15.40;97.60;;;;;;5033888;28;20029;-63
2022/10/04 00:15:28;;;;;;;14.13;8.90;;;15.40;97.60;;;;;;5033616;28;20108;-64
2022/10/04 00:18:06;;;;;;;12.38;8.43;;;15.40;97.70;;;;;;5034093;28;20041;-63
2022/10/04 00:20:51;;;;;;;12.85;8.57;;;15.40;97.70;;;;;;5033542;28;20026;-67
2022/10/04 00:23:23;;;;;;;11.23;9.00;;;15.40;97.70;;;;;;5033389;28;20508;-63
2022/10/04 00:26:12;;;;;;;13.77;9.15;;;15.30;97.70;;;;;;5033815;28;20025;-63
2022/10/04 00:28:38;;;;;;;14.93;8.63;;;15.30;97.70;;;;;;5029358;28;20486;-63
2022/10/04 00:31:17;;;;;;;14.57;9.57;;;15.30;97.70;;;;;;5033532;28;20029;-64
2022/10/04 00:34:01;;;;;;;12.88;9.52;;;15.30;97.70;;;;;;5033596;28;20061;-63
2022/10/04 00:36:34;;;;;;;11.73;8.57;;;15.30;97.80;;;;;;5033636;28;20044;-63
2022/10/04 00:39:03;;;;;;;15.30;9.50;;;15.30;97.70;;;;;;5033159;28;20059;-63
2022/10/04 00:41:47;;;;;;;12.93;9.25;;;15.30;97.70;;;;;;5033292;28;20471;-63
2022/10/04 00:44:34;;;;;;;16.33;9.77;;;15.30;97.70;;;;;;5033184;28;20029;-63
2022/10/04 00:47:11;;;;;;;11.45;8.60;;;15.30;97.70;;;;;;5033244;28;20470;-64
2022/10/04 00:49:43;;;;;;;12.70;9.35;;;15.20;97.70;;;;;;5033246;28;20021;-64
2022/10/04 00:52:18;;;;;;;12.52;9.35;;;15.20;97.70;;;;;;5032739;28;20046;-63
2022/10/04 00:54:49;;;;;;;13.25;9.48;;;15.20;97.80;;;;;;5033131;28;20143;-63
2022/10/04 00:57:27;;;;;;;11.90;9.43;;;15.10;97.80;;;;;;5033098;28;20017;-63
2022/10/04 00:59:58;;;;;;;13.32;9.65;;;15.20;97.80;;;;;;5033041;28;20029;-63
2022/10/04 01:02:43;;;;;;;16.70;10.02;;;15.20;97.90;;;;;;5032943;28;20053;-63
2022/10/04 01:05:18;;;;;;;12.13;8.98;;;15.10;97.80;;;;;;5032737;28;20049;-63
2022/10/04 01:07:47;;;;;;;13.90;9.38;;;15.10;97.90;;;;;;5032821;28;20440;-63
2022/10/04 01:10:31;;;;;;;17.20;9.23;;;15.10;98.00;;;;;;5032873;28;20494;-63
2022/10/04 01:13:08;;;;;;;14.27;10.10;;;15.10;98.00;;;;;;5031458;28;20456;-63
2022/10/04 01:16:02;;;;;;;13.35;9.13;;;15.10;98.00;;;;;;5017258;28;20025;-63
2022/10/04 01:18:33;;;;;;;15.38;9.48;;;15.00;97.90;;;;;;5027740;28;20117;-63
2022/10/04 01:21:17;;;;;;;11.27;8.52;;;15.00;98.10;;;;;;5011202;28;20023;-63
2022/10/04 01:23:51;;;;;;;15.55;9.55;;;15.00;98.00;;;;;;5013004;28;20041;-63
2022/10/04 01:26:25;;;;;;;14.25;9.07;;;15.00;98.10;;;;;;5012816;28;20487;-63
2022/10/04 01:28:52;;;;;;;16.25;9.55;;;15.00;98.10;;;;;;5013003;28;20034;-63
2022/10/04 01:31:18;;;;;;;14.73;9.65;;;15.00;98.10;;;;;;5012986;28;20022;-64
2022/10/04 01:33:43;;;;;;;16.90;9.25;;;15.00;98.10;;;;;;5012789;28;20084;-63
2022/10/04 01:36:09;;;;;;;12.20;8.75;;;14.90;98.10;;;;;;5012662;28;20062;-63
2022/10/04 01:38:35;;;;;;;12.65;8.85;;;14.90;98.20;;;;;;5012852;28;20033;-63
2022/10/04 01:41:04;;;;;;;14.02;9.05;;;14.90;98.20;;;;;;5012788;28;20026;-63
2022/10/04 01:43:35;;;;;;;13.93;9.27;;;14.90;98.30;;;;;;5013246;28;20049;-63
2022/10/04 01:46:12;;;;;;;13.85;9.40;;;14.90;98.20;;;;;;5012930;28;20018;-63
2022/10/04 01:48:43;;;;;;;13.18;8.82;;;14.90;98.20;;;;;;5012787;28;20088;-63
2022/10/04 01:51:22;;;;;;;13.57;8.73;;;14.80;98.20;;;;;;5012347;28;20026;-63
2022/10/04 01:54:10;;;;;;;12.63;9.05;;;14.80;98.20;;;;;;5012896;28;20057;-63
2022/10/04 01:57:04;;;;;;;15.43;9.63;;;14.90;98.20;;;;;;5012786;28;20025;-63
2022/10/04 01:59:36;;;;;;;16.27;9.60;;;14.80;98.20;;;;;;5012723;28;20021;-63
2022/10/04 02:02:19;;;;;;;13.25;9.38;;;14.80;98.20;;;;;;5012683;28;20049;-63
2022/10/04 02:04:51;;;;;;;;;;;14.80;98.30;;;;;;5013238;28;20028;-63
2022/10/04 02:07:17;;;;;;;13.40;9.65;;;14.70;98.20;;;;;;5012649;28;20301;-63
2022/10/04 02:09:46;;;;;;;12.15;9.48;;;14.70;98.40;;;;;;5013063;28;20033;-63
2022/10/04 02:12:17;;;;;;;15.23;9.60;;;14.70;98.50;;;;;;5012703;28;20049;-63
2022/10/04 02:14:51;;;;;;;15.32;9.45;;;14.70;98.50;;;;;;5012728;28;20076;-63
2022/10/04 02:17:22;;;;;;;14.02;9.35;;;14.70;98.50;;;;;;5012545;28;20013;-63
2022/10/04 02:19:49;;;;;;;18.08;10.68;;;14.70;98.60;;;;;;5012420;28;20030;-63
2022/10/04 02:22:16;;;;;;;18.80;9.90;;;14.70;98.60;;;;;;5012309;28;20064;-63
2022/10/04 02:24:45;;;;;;;14.02;9.27;;;14.70;98.60;;;;;;5013015;28;20026;-63
2022/10/04 02:27:11;;;;;;;16.90;9.90;;;14.60;98.70;;;;;;5015849;28;20037;-63
2022/10/04 02:29:36;;;;;;;16.08;10.23;;;14.60;98.70;;;;;;5015906;28;20025;-63
2022/10/04 02:34:53;;;;;;;14.50;10.40;;;14.60;98.90;;;;;;5015623;28;20096;-63
2022/10/04 02:37:22;;;;;;;15.20;9.68;;;14.60;98.90;;;;;;5016022;28;20033;-63
2022/10/04 02:39:53;;;;;;;13.82;9.80;;;14.60;98.90;;;;;;5015958;28;20022;-63
2022/10/04 02:42:43;;;;;;;18.17;9.93;;;14.60;98.90;;;;;;5015559;28;20022;-63
2022/10/04 02:45:37;;;;;;;14.98;9.95;;;14.60;98.80;;;;;;5015738;28;20492;-63
2022/10/04 02:48:22;;;;;;;13.43;10.15;;;14.60;98.80;;;;;;5015494;28;20033;-63
2022/10/04 02:50:52;;;;;;;12.80;10.10;;;14.50;98.80;;;;;;5015736;28;20116;-63
2022/10/04 02:53:25;;;;;;;17.38;11.25;;;14.50;99.00;;;;;;5030723;28;20022;-64
2022/10/04 02:55:52;;;;;;;14.93;11.00;;;14.50;99.10;;;;;;5015780;28;20053;-64
2022/10/04 02:58:21;;;;;;;13.52;9.95;;;14.50;99.10;;;;;;5015548;28;20018;-63
2022/10/04 03:00:55;;;;;;;15.98;10.27;;;14.50;99.20;;;;;;5015603;28;20080;-63
2022/10/04 03:03:24;;;;;;;18.00;11.13;;;14.40;99.20;;;;;;5030194;28;20038;-63
2022/10/04 03:06:18;;;;;;;15.13;11.30;;;14.40;99.20;;;;;;5015693;28;20033;-63
2022/10/04 03:08:47;;;;;;;15.35;11.20;;;14.40;99.10;;;;;;5013621;28;20050;-63
2022/10/04 03:11:14;;;;;;;13.63;10.23;;;14.40;99.30;;;;;;5015347;28;20018;-62
2022/10/04 03:13:45;;;;;;;12.20;10.13;;;14.40;99.30;;;;;;5015138;28;20022;-64
2022/10/04 03:16:11;;;;;;;13.10;10.68;;;14.40;99.20;;;;;;5015080;28;20018;-63
2022/10/04 03:18:37;;;;;;;15.75;10.52;;;14.30;99.30;;;;;;5014717;28;20387;-63
2022/10/04 03:21:09;;;;;;;14.27;10.60;;;14.40;99.30;;;;;;5015139;28;20017;-64
2022/10/04 03:23:35;;;;;;;13.27;11.13;;;14.40;99.40;;;;;;5015034;28;20030;-63
2022/10/04 03:26:12;;;;;;;15.35;10.27;;;14.30;99.40;;;;;;5015098;28;20080;-64
2022/10/04 03:28:38;;;;;;;16.48;11.68;;;14.30;99.50;;;;;;5014738;28;20034;-63
2022/10/04 03:31:04;;;;;;;13.60;10.05;;;14.30;99.50;;;;;;5014847;28;20041;-64
2022/10/04 03:33:30;;;;;;;15.77;11.25;;;14.30;99.50;;;;;;5014714;28;20476;-64
2022/10/04 03:35:59;;;;;;;12.30;9.65;;;14.20;99.50;;;;;;5014405;28;20041;-64
2022/10/04 03:38:27;;;;;;;14.88;9.98;;;14.30;99.40;;;;;;5014265;28;20026;-63
2022/10/04 03:41:00;;;;;;;15.13;10.25;;;14.30;99.40;;;;;;5014865;28;20026;-63
2022/10/04 03:43:33;;;;;;;16.35;10.07;;;14.30;99.40;;;;;;5014385;28;20530;-64
2022/10/04 03:46:00;;;;;;;14.00;10.95;;;14.30;99.50;;;;;;5014350;28;20018;-64
2022/10/04 03:48:34;;;;;;;15.57;9.85;;;14.20;99.50;;;;;;5014451;28;20060;-64
2022/10/04 03:51:03;;;;;;;16.27;10.75;;;14.20;99.50;;;;;;5014457;28;20022;-63
2022/10/04 03:53:42;;;;;;;14.20;10.32;;;14.20;99.60;;;;;;5014335;28;20506;-63
2022/10/04 03:56:15;;;;;;;16.27;10.55;;;14.20;99.60;;;;;;5014856;28;20025;-63
2022/10/04 03:58:42;;;;;;;14.02;10.25;;;14.20;99.50;;;;;;5014404;28;20026;-63
2022/10/04 04:01:33;;;;;;;11.52;9.73;;;14.20;99.50;;;;;;5014168;28;20054;-63
2022/10/04 04:03:59;;;;;;;13.52;10.88;;;14.20;99.50;;;;;;5014571;28;20033;-63
2022/10/04 04:06:31;;;;;;;15.20;11.50;;;14.10;99.40;;;;;;5014324;28;20046;-63
2022/10/04 04:08:59;;;;;;;14.77;10.63;;;14.10;99.40;;;;;;5014200;28;20029;-62
2022/10/04 04:11:26;;;;;;;15.32;10.70;;;14.10;99.50;;;;;;5014049;28;20044;-63
2022/10/04 04:14:04;;;;;;;15.30;11.02;;;14.10;99.50;;;;;;5014153;28;20427;-63
2022/10/04 04:16:30;;;;;;;14.60;11.23;;;14.10;99.40;;;;;;5013794;28;20018;-63
2022/10/04 04:19:01;;;;;;;13.88;11.02;;;14.10;99.70;;;;;;5014263;28;20463;-63
2022/10/04 04:21:28;;;;;;;17.20;11.32;;;14.10;99.40;;;;;;5014033;28;20030;-63
2022/10/04 04:24:04;;;;;;;19.65;10.98;;;14.10;99.40;;;;;;5013954;28;20026;-63
2022/10/04 04:26:38;;;;;;;14.82;11.60;;;14.10;99.40;;;;;;5013878;28;20097;-63
2022/10/04 04:29:17;;;;;;;15.20;11.52;;;14.00;99.40;;;;;;5013573;28;20113;-63
2022/10/04 04:31:50;;;;;;;19.90;11.43;;;14.00;99.40;;;;;;5013930;28;20101;-63
2022/10/04 04:34:29;;;;;;;17.00;11.27;;;14.00;99.40;;;;;;5013645;28;20034;-63
2022/10/04 04:37:00;;;;;;;14.20;10.70;;;14.00;99.40;;;;;;5013795;28;20026;-63
2022/10/04 04:39:35;;;;;;;18.10;11.70;;;14.00;99.40;;;;;;5013573;28;20026;-63
2022/10/04 04:42:09;;;;;;;15.68;11.52;;;13.90;99.40;;;;;;5013919;28;20022;-63
2022/10/04 04:44:55;;;;;;;15.68;11.63;;;13.90;99.50;;;;;;5013105;28;20034;-64
2022/10/04 04:47:34;;;;;;;17.45;11.52;;;13.90;99.40;;;;;;5012876;28;20050;-62
2022/10/04 04:50:07;;;;;;;17.27;12.15;;;13.90;99.40;;;;;;5013311;28;20029;-63
2022/10/04 04:52:34;;;;;;;15.98;11.73;;;13.90;99.40;;;;;;5013609;28;20094;-63
2022/10/04 04:55:00;;;;;;;13.05;11.35;;;13.90;99.40;;;;;;5013395;28;20026;-63
2022/10/04 04:57:26;;;;;;;15.35;12.07;;;13.90;99.40;;;;;;5013466;28;20038;-63
2022/10/04 04:59:56;;;;;;;18.77;11.43;;;13.80;99.30;;;;;;5013154;28;20022;-63
2022/10/04 05:02:34;;;;;;;14.13;11.32;;;13.80;99.30;;;;;;5014926;28;20475;-63
2022/10/04 05:05:23;;;;;;;15.73;11.98;;;13.80;99.30;;;;;;5032965;28;20113;-63
2022/10/04 05:08:02;;;;;;;15.63;11.15;;;13.80;99.30;;;;;;5031365;28;20031;-63
2022/10/04 05:10:32;;;;;;;15.75;11.55;;;13.80;99.40;;;;;;5033230;28;20025;-63
2022/10/04 05:13:00;;;;;;;16.25;11.90;;;13.80;99.30;;;;;;5040381;28;20025;-63
2022/10/04 05:15:30;;;;;;;12.65;11.32;;;13.80;98.80;;;;;;5031892;28;20152;-63
2022/10/04 05:17:56;;;;;;;11.27;10.15;;;13.80;98.40;;;;;;5037607;28;20033;-64
2022/10/04 05:20:21;;;;;;;17.48;11.80;;;13.80;98.20;;;;;;5024691;28;20404;-64
2022/10/04 05:22:49;;;;;;;13.05;10.63;;;13.80;98.10;;;;;;5016693;28;20127;-64
2022/10/04 05:25:32;;;;;;;11.98;10.77;;;13.80;98.10;;;;;;5025164;28;20021;-63
2022/10/04 05:27:58;;;;;;;16.77;11.77;;;13.80;98.10;;;;;;5025315;28;20390;-64
2022/10/04 05:30:47;;;;;;;15.52;11.02;;;13.70;98.30;;;;;;5029024;28;20026;-63
2022/10/04 05:33:20;;;;;;;15.10;11.25;;;13.80;98.30;;;;;;5030637;28;20018;-63
2022/10/04 05:35:59;;;;;;;17.95;12.65;;;13.70;98.40;;;;;;5030062;28;20052;-63
2022/10/04 05:38:36;;;;;;;14.95;11.77;;;13.80;98.40;;;;;;5027914;28;20025;-63
2022/10/04 05:41:21;;;;;;;16.88;12.25;;;13.70;98.40;;;;;;5021798;28;20037;-63
2022/10/04 05:43:50;;;;;;;14.52;11.80;;;13.70;98.50;;;;;;5032302;28;20034;-64
2022/10/04 05:46:30;;;;;;;13.93;10.52;;;13.70;98.60;;;;;;5026858;28;20040;-63
2022/10/04 05:49:14;;;;;;;15.65;10.73;;;13.70;98.50;;;;;;5030109;28;20068;-63
2022/10/04 05:51:59;;;;;;;14.45;10.65;;;13.80;98.70;;;;;;5023336;28;20089;-63
2022/10/04 05:54:33;;;;;;;15.05;11.50;;;13.80;98.70;;;;;;5026058;28;20029;-62
2022/10/04 05:57:19;;;;;;;15.43;11.93;;;13.70;98.80;;;;;;5021773;28;20029;-63
2022/10/04 06:00:09;;;;;;;13.75;10.40;;;13.70;98.90;;;;;;5034049;28;20383;-63
2022/10/04 06:03:02;;;;;;;20.35;12.45;;;13.70;98.90;;;;;;5044467;28;20048;-63
2022/10/04 06:05:48;;;;;;;15.68;11.80;;;13.70;98.90;;;;;;5026055;28;20077;-63
2022/10/04 06:08:27;;;;;;;16.70;11.43;;;13.60;99.00;;;;;;5040177;28;20682;-63
2022/10/04 06:11:14;;;;;;;14.35;11.32;;;13.60;99.20;;;;;;5026553;28;20122;-63
2022/10/04 06:14:02;;;;;;;12.38;9.70;;;13.60;99.30;;;;;;5030027;28;20486;-63
2022/10/04 06:17:01;;;;;;;14.43;10.18;;;13.60;99.50;;;;;;5032034;28;20095;-63
2022/10/04 06:20:03;;;;;;;17.25;11.25;;;13.60;99.60;;;;;;5014713;28;20034;-63
2022/10/04 06:22:30;;;;;;;;;;;13.60;99.70;;;;;;5016564;28;20037;-64
2022/10/04 06:25:02;;;;;;;14.57;8.93;;;13.60;99.80;;;;;;5016141;28;19952;-66
2022/10/04 06:27:40;;;;;;;14.43;10.98;;;13.60;99.90;;;;;;5014534;28;20037;-68
2022/10/04 06:30:17;;;;;;;16.33;9.98;;;13.50;99.90;;;;;;5037425;28;20114;-65
2022/10/04 06:33:31;;;;;;;16.15;10.52;;;13.60;99.70;;;;;;5027628;28;20118;-64
2022/10/04 06:36:05;;;;;;;17.35;11.48;;;13.60;99.60;;;;;;5021495;28;20038;-64
2022/10/04 06:38:36;;;;;;;14.70;10.68;;;13.50;99.50;;;;;;5027887;28;20022;-64
2022/10/04 06:41:17;;;;;;;11.02;7.22;;;13.50;99.70;;;;;;5045770;28;20037;-64
2022/10/04 06:44:01;;;;;;;13.32;8.85;;;13.60;99.90;;;;;;5024270;28;20075;-64
2022/10/04 06:46:38;;;;;;;8.63;5.70;;;13.60;99.90;;;;;;5032448;28;20087;-64
2022/10/04 06:49:06;;;;;;;12.57;7.32;;;13.60;99.90;;;;;;5024445;28;20129;-64
2022/10/04 06:51:39;;;;;;;10.88;7.22;;;13.70;99.90;;;;;;5018123;28;20048;-64
2022/10/04 06:54:42;;;;;;;9.68;6.50;;;13.70;99.90;;;;;;5034609;28;20088;-64
2022/10/04 06:57:22;;;;;;;;;;;13.70;99.90;;;;;;5045531;28;20091;-64
2022/10/04 07:00:08;;;;;;;6.93;3.92;;;13.70;99.90;;;;;;5034533;28;19912;-64
2022/10/04 07:02:48;;;;;;;8.48;5.30;;;13.70;99.90;;;;;;5034463;28;20021;-64
2022/10/04 07:05:17;;;;;;;10.00;7.10;;;13.70;99.90;;;;;;5036550;28;20475;-64
2022/10/04 07:07:47;;;;;;;12.02;6.32;;;13.80;99.90;;;;;;5035970;28;20112;-65
2022/10/04 07:10:24;;;;;;;8.27;4.75;;;13.80;99.90;;;;;;5035831;28;20018;-64
2022/10/04 07:12:59;;;;;;;14.95;7.63;;;13.90;99.90;;;;;;5039093;28;20039;-64
2022/10/04 07:15:30;;;;;;;14.77;9.02;;;13.90;99.90;;;;;;5034100;28;20049;-64
2022/10/04 07:18:02;;;;;;;14.98;9.00;;;13.90;99.90;;;;;;5031972;28;20218;-64
2022/10/04 07:20:32;;;;;;;9.18;7.45;;;13.90;99.90;;;;;;5042959;28;20463;-62
2022/10/04 07:23:05;;;;;;;8.73;5.32;;;13.90;99.90;;;;;;5046371;28;20076;-64
2022/10/04 07:25:42;;;;;;;15.25;8.35;;;14.00;99.90;;;;;;5034648;28;20021;-62
2022/10/04 07:31:19;;;;;;;14.85;8.98;;;14.00;99.90;;;;;;5034984;28;20041;-63
2022/10/04 07:33:51;;;;;;;13.05;7.78;;;14.10;99.90;;;;;;5046297;28;20390;-64
2022/10/04 07:36:22;;;;;;;;;;;14.10;99.90;;;;;;5036682;28;20035;-65
2022/10/04 07:38:59;;;;;;;13.82;7.22;;;14.10;99.90;;;;;;5037255;28;19912;-65
2022/10/04 07:41:36;;;;;;;6.35;3.75;;;14.10;99.90;;;;;;5034209;28;20347;-62
2022/10/04 07:44:14;;;;;;;8.43;5.93;;;14.20;99.90;;;;;;5049603;28;20071;-64
2022/10/04 07:47:02;;;;;;;8.93;4.75;;;14.30;99.90;;;;;;5036355;28;20013;-62
2022/10/04 07:49:35;;;;;;;13.05;7.57;;;14.30;99.90;;;;;;5033939;28;20029;-63
2022/10/04 07:52:23;;;;;;;10.30;4.43;;;14.30;99.90;;;;;;5033729;28;20104;-64
2022/10/04 07:55:10;;;;;;;8.35;5.05;;;14.40;99.90;;;;;;5014239;28;20036;-62
2022/10/04 07:58:12;;;;;;;14.07;6.70;;;14.50;99.90;;;;;;5023039;28;20060;-64
2022/10/04 08:01:15;;;;;;;8.10;5.30;;;14.50;99.90;;;;;;5033094;28;20072;-62
2022/10/04 08:04:18;;;;;;;10.77;7.22;;;14.50;99.90;;;;;;5025411;28;20049;-63
2022/10/04 08:07:12;;;;;;;6.82;3.97;;;14.50;99.90;;;;;;5033055;28;20372;-64
2022/10/04 08:09:56;;;;;;;8.00;4.82;;;14.60;99.90;;;;;;5033695;28;20125;-63
2022/10/04 08:12:34;;;;;;;8.40;5.57;;;14.60;99.90;;;;;;5033428;28;20048;-63
2022/10/04 08:15:34;;;;;;;9.25;4.90;;;14.70;99.90;;;;;;5039635;28;20033;-62
2022/10/04 08:18:11;;;;;;;10.55;5.82;;;14.70;99.80;;;;;;5035226;28;20104;-65
2022/10/04 08:20:57;;;;;;;5.82;3.72;;;14.70;99.80;;;;;;5046118;28;20036;-65
2022/10/04 08:23:43;;;;;;;5.45;3.83;;;14.80;99.60;;;;;;5043684;28;20405;-63
2022/10/04 08:26:09;;;;;;;10.40;5.00;;;14.80;99.50;;;;;;5031575;28;20524;-65
2022/10/04 08:31:56;;;;;;;11.20;6.63;;;14.90;99.50;;;;;;5035820;28;20399;-64
2022/10/04 08:34:50;;;;;;;9.00;5.18;;;14.90;99.40;;;;;;5030987;28;20033;-64
2022/10/04 08:37:19;;;;;;;9.90;5.07;;;14.90;99.50;;;;;;5048918;28;20082;-64
2022/10/04 08:40:07;;;;;;;8.82;3.88;;;14.90;99.40;;;;;;5053044;28;20033;-64
2022/10/04 08:42:52;;;;;;;5.72;3.42;;;15.00;99.30;;;;;;5034766;28;20025;-64
2022/10/04 08:45:56;;;;;;;5.50;4.05;;;15.00;99.30;;;;;;5037874;28;20489;-64
2022/10/04 08:48:37;;;;;;;8.57;4.47;;;15.00;99.20;;;;;;5033267;28;20041;-64
2022/10/04 08:51:33;;;;;;;14.02;7.82;;;15.10;99.30;;;;;;5032537;28;20022;-64
2022/10/04 08:54:26;;;;;;;10.10;5.75;;;15.10;99.20;;;;;;5028639;28;20076;-64
2022/10/04 08:57:03;;;;;;;9.73;6.13;;;15.10;99.30;;;;;;5034655;28;20022;-64
2022/10/04 09:00:19;;;;;;;6.30;3.70;;;15.10;99.30;;;;;;5032459;28;20029;-63
2022/10/04 09:03:26;;;;;;;6.15;3.72;;;15.10;99.00;;;;;;4993267;28;20396;-64
2022/10/04 09:06:06;;;;;;;4.80;2.97;;;15.20;99.00;;;;;;5032475;28;20029;-64
2022/10/04 09:08:51;;;;;;;5.03;2.85;;;15.20;99.10;;;;;;5032751;28;20043;-64
2022/10/04 09:11:25;;;;;;;9.05;5.00;;;15.20;99.00;;;;;;5032271;28;20029;-63
2022/10/04 09:14:23;;;;;;;4.65;3.45;;;15.30;98.90;;;;;;5032850;28;20033;-64
2022/10/04 09:17:14;;;;;;;8.00;4.00;;;15.30;98.90;;;;;;5032644;28;20083;-64
2022/10/04 09:19:52;;;;;;;9.65;4.55;;;15.30;98.90;;;;;;5036818;28;20074;-64
2022/10/04 09:22:41;;;;;;;10.00;4.82;;;15.30;98.90;;;;;;5052643;28;20048;-64
2022/10/04 09:25:27;;;;;;;6.15;3.42;;;15.30;98.90;;;;;;5046448;28;20029;-64
2022/10/04 09:28:31;;;;;;;10.57;5.68;;;15.30;98.90;;;;;;5032448;28;20038;-64
2022/10/04 09:31:15;;;;;;;5.88;3.33;;;15.40;98.80;;;;;;5031868;28;20029;-63
2022/10/04 09:33:44;;;;;;;6.35;3.80;;;15.40;98.90;;;;;;5032225;28;20036;-64
2022/10/04 09:36:18;;;;;;;6.03;3.42;;;15.40;98.90;;;;;;5035930;28;20535;-64
2022/10/04 09:39:12;;;;;;;6.90;3.50;;;15.40;98.90;;;;;;5036309;28;20032;-63
2022/10/04 09:42:06;;;;;;;9.63;4.65;;;15.40;98.80;;;;;;5036675;28;20030;-64
2022/10/04 09:44:48;;;;;;;6.40;3.03;;;15.50;98.80;;;;;;5036385;28;20022;-64
2022/10/04 09:47:30;;;;;;;7.50;3.63;;;15.50;98.90;;;;;;5048438;28;20028;-64
2022/10/04 09:50:25;;;;;;;4.80;3.10;;;15.50;98.90;;;;;;5036175;28;20040;-64
2022/10/04 09:52:57;;;;;;;5.68;3.67;;;15.50;98.90;;;;;;5035837;28;20036;-64
2022/10/04 09:55:32;;;;;;;10.35;4.78;;;15.60;98.80;;;;;;5038201;28;20024;-64
2022/10/04 09:58:24;;;;;;;5.28;3.35;;;15.60;98.90;;;;;;5035177;28;20036;-64
2022/10/04 10:01:04;;;;;;;7.63;3.38;;;15.60;98.80;;;;;;5034467;28;20475;-64
2022/10/04 10:03:46;;;;;;;6.13;3.30;;;15.60;98.80;;;;;;5036188;28;20029;-64
2022/10/04 10:06:30;;;;;;;6.10;3.03;;;15.70;98.80;;;;;;5034362;28;20025;-64
2022/10/04 10:15:34;;;;;;;5.22;3.45;;;15.70;98.90;;;;;;5043069;28;20044;-64
2022/10/04 10:18:37;;;;;;;10.13;4.35;;;15.70;99.00;;;;;;5054363;28;20021;-64
2022/10/04 10:21:16;;;;;;;8.80;3.92;;;15.80;98.90;;;;;;5045146;28;20111;-64
2022/10/04 10:24:07;;;;;;;8.63;3.85;;;15.70;99.00;;;;;;5049048;28;20033;-65
2022/10/04 10:27:01;;;;;;;11.52;5.20;;;15.80;98.80;;;;;;5033290;28;20029;-64
2022/10/04 10:29:42;;;;;;;6.55;3.35;;;15.80;98.90;;;;;;5039643;28;20029;-64
2022/10/04 10:32:31;;;;;;;8.83;3.90;;;15.80;99.00;;;;;;5035587;28;20025;-64
2022/10/04 10:35:41;;;;;;;7.18;3.92;;;15.80;98.90;;;;;;5035145;28;20438;-64
2022/10/04 10:38:39;;;;;;;4.38;3.00;;;15.90;99.00;;;;;;5025763;28;20032;-64
2022/10/04 10:41:10;;;;;;;7.65;3.17;;;15.90;99.00;;;;;;5038863;28;20381;-64
2022/10/04 10:44:01;;;;;;;7.43;3.60;;;15.90;99.10;;;;;;5036787;28;20083;-64
2022/10/04 10:46:53;;;;;;;6.47;3.03;;;15.90;99.10;;;;;;5054549;28;20063;-64
2022/10/04 10:49:40;;;;;;;5.97;3.63;;;16.00;99.00;;;;;;5034845;28;20076;-64
2022/10/04 10:52:39;;;;;;;5.75;3.72;;;16.00;99.00;;;;;;5035209;28;20021;-64
2022/10/04 10:55:27;;;;;;;7.85;5.10;;;16.00;99.00;;;;;;5034083;28;20390;-64
2022/10/04 10:58:04;;;;;;;5.75;3.50;;;16.00;96.00;;;;;;5034365;28;20360;-64
2022/10/04 11:00:58;;;;;;;9.52;3.92;;;16.00;94.40;;;;;;5043168;28;20391;-63
2022/10/04 11:03:49;;;;;;;5.50;3.00;;;16.10;93.90;;;;;;5025729;28;20052;-64
2022/10/04 11:06:21;;;;;;;5.15;3.55;;;16.10;94.10;;;;;;5053584;28;20041;-63
2022/10/04 11:08:59;;;;;;;6.25;3.50;;;16.20;94.20;;;;;;5045698;28;20490;-64
2022/10/04 11:11:45;;;;;;;5.65;3.08;;;16.20;94.30;;;;;;5034890;28;20088;-64
2022/10/04 11:14:39;;;;;;;7.13;4.07;;;16.20;95.00;;;;;;5035051;28;20052;-64
2022/10/04 11:17:35;;;;;;;9.32;4.13;;;16.30;94.90;;;;;;5052290;28;20036;-64
2022/10/04 11:20:44;;;;;;;6.72;3.30;;;16.30;97.10;;;;;;5033512;28;20083;-64
2022/10/04 11:23:28;;;;;;;7.47;4.50;;;16.30;97.90;;;;;;5054047;28;20485;-64
2022/10/04 11:25:59;;;;;;;12.95;4.60;;;16.40;98.40;;;;;;5048060;28;20021;-64
2022/10/04 11:28:34;;;;;;;9.93;5.18;;;16.40;98.40;;;;;;5034621;28;20044;-64
2022/10/04 11:31:27;;;;;;;7.88;4.50;;;16.40;98.60;;;;;;5028468;28;20026;-64
2022/10/04 11:34:17;;;;;;;8.02;4.45;;;16.40;98.70;;;;;;5025688;28;20041;-64
2022/10/04 11:36:55;;;;;;;7.25;4.45;;;16.40;98.70;;;;;;5033875;28;20057;-64
2022/10/04 11:39:47;;;;;;;10.35;4.68;;;16.50;98.70;;;;;;5036523;28;20080;-64
2022/10/04 11:43:03;;;;;;;8.95;5.38;;;16.50;98.80;;;;;;5040222;28;20057;-64
2022/10/04 11:45:54;;;;;;;8.57;5.93;;;16.50;98.80;;;;;;5027933;28;20513;-64
2022/10/04 11:48:37;;;;;;;9.52;4.50;;;16.50;99.10;;;;;;5022867;28;20107;-64
2022/10/04 11:51:18;;;;;;;7.93;4.47;;;16.50;99.30;;;;;;5033858;28;20034;-64
2022/10/04 11:53:44;;;;;;;7.15;3.95;;;16.50;99.40;;;;;;5041520;28;20028;-65
2022/10/04 11:56:34;;;;;;;13.45;5.03;;;16.60;99.30;;;;;;5034070;28;20033;-65
2022/10/04 11:59:11;;;;;;;9.18;5.57;;;16.60;99.20;;;;;;5031522;28;20040;-65
2022/10/04 12:01:58;;;;;;;7.03;4.75;;;16.60;99.30;;;;;;5035345;28;20085;-64
2022/10/04 12:05:00;;;;;;;7.18;4.53;;;16.70;99.10;;;;;;5032518;28;20225;-64
2022/10/04 12:07:37;;;;;;;6.00;4.15;;;16.70;99.00;;;;;;5051134;28;20040;-66
2022/10/04 12:10:23;;;;;;;8.30;4.93;;;16.70;99.20;;;;;;5037623;28;20025;-64
2022/10/04 12:12:52;;;;;;;9.25;4.13;;;16.70;99.20;;;;;;5028846;28;20025;-65
2022/10/04 12:15:33;;;;;;;8.80;4.45;;;16.70;99.20;;;;;;5031004;28;20033;-64
2022/10/04 12:18:34;;;;;;;10.60;4.70;;;16.70;99.10;;;;;;5040026;28;20037;-64
2022/10/04 12:21:15;;;;;;;4.68;4.10;;;16.80;99.10;;;;;;5033586;28;20057;-65
2022/10/04 12:24:17;;;;;;;13.40;4.80;;;16.80;99.20;;;;;;5032822;28;20457;-65
2022/10/04 12:27:11;;;;;;;6.13;4.68;;;16.80;99.10;;;;;;5032350;28;20102;-64
2022/10/04 12:30:09;;;;;;;7.13;4.40;;;16.80;99.20;;;;;;5029650;28;20029;-65
2022/10/04 12:32:37;;;;;;;7.97;4.00;;;16.80;99.10;;;;;;5035706;28;20018;-64
2022/10/04 12:35:21;;;;;;;6.90;3.90;;;16.90;99.30;;;;;;5032256;28;20383;-65
2022/10/04 12:38:25;;;;;;;7.38;4.28;;;16.90;99.20;;;;;;5032654;28;20502;-65
2022/10/04 12:41:11;;;;;;;7.53;3.65;;;16.90;99.20;;;;;;5034511;28;20057;-64
2022/10/04 12:44:06;;;;;;;6.72;3.88;;;17.00;99.70;;;;;;5032725;28;20483;-65
2022/10/04 12:46:50;;;;;;;9.93;4.57;;;16.90;99.30;;;;;;5031152;28;20029;-65
2022/10/04 12:49:24;;;;;;;7.90;3.63;;;16.90;99.30;;;;;;5035204;28;20360;-65
2022/10/04 12:51:50;;;;;;;9.05;3.92;;;17.00;99.30;;;;;;5033145;28;20493;-64
2022/10/04 12:54:33;;;;;;;6.47;3.17;;;17.00;99.30;;;;;;5037795;28;20034;-64
2022/10/04 12:57:39;;;;;;;7.15;3.42;;;17.00;99.20;;;;;;5032310;28;20048;-64
2022/10/04 13:00:14;;;;;;;8.48;3.70;;;17.10;99.20;;;;;;5028998;28;20502;-64
2022/10/04 13:03:03;;;;;;;4.32;3.08;;;17.00;99.30;;;;;;5031771;28;20087;-65
2022/10/04 13:05:50;;;;;;;5.72;3.58;;;17.10;99.30;;;;;;5028892;28;20036;-65
2022/10/04 13:08:21;;;;;;;8.65;3.60;;;17.10;99.20;;;;;;5030856;28;20059;-64
2022/10/04 13:11:08;;;;;;;6.43;3.30;;;17.10;99.40;;;;;;5034084;28;20025;-64
2022/10/04 13:13:45;;;;;;;6.88;3.65;;;17.10;99.20;;;;;;5040207;28;20032;-64
2022/10/04 13:16:41;;;;;;;5.80;3.25;;;17.10;99.40;;;;;;5042488;28;20029;-64
2022/10/04 13:19:39;;;;;;;6.38;3.00;;;17.20;99.20;;;;;;5052440;28;20025;-64
2022/10/04 13:22:34;;;;;;;3.47;2.38;;;17.20;99.20;;;;;;5011378;28;20034;-64
2022/10/04 13:25:05;;;;;;;6.10;2.97;;;17.20;99.30;;;;;;5028943;28;20021;-64
2022/10/04 13:27:53;;;;;;;6.10;2.60;;;17.20;99.20;;;;;;5036917;28;20026;-64
2022/10/04 13:30:23;;;;;;;6.40;3.42;;;17.20;99.10;;;;;;5032641;28;20144;-64
2022/10/04 13:32:51;;;;;;;3.42;2.63;;;17.20;99.20;;;;;;5034999;28;20397;-64
2022/10/04 13:35:25;;;;;;;6.03;2.70;;;17.20;99.20;;;;;;5043910;28;20065;-64
2022/10/04 13:38:28;;;;;;;4.93;3.28;;;17.30;99.20;;;;;;5032251;28;20025;-65
2022/10/04 13:41:06;;;;;;;5.63;2.90;;;17.30;99.10;;;;;;5035156;28;20025;-65
2022/10/04 13:43:54;;;;;;;4.60;3.75;;;17.30;99.10;;;;;;5031669;28;20091;-64
2022/10/04 13:46:43;;;;;;;3.80;2.70;;;17.30;99.10;;;;;;5020876;28;20056;-65
2022/10/04 13:49:34;;;;;;;4.72;2.80;;;17.30;99.20;;;;;;5032421;28;20041;-64
2022/10/04 13:58:13;;;;;;;5.35;3.03;;;17.40;99.10;;;;;;5021656;28;20166;-64
2022/10/04 14:01:10;;;;;;;7.90;3.05;;;17.40;99.20;;;;;;5012777;28;20026;-64
2022/10/04 14:03:51;;;;;;;6.53;3.63;;;17.40;99.20;;;;;;5026118;28;20034;-64